Time;durP1;ratioP1;P1;durP2;ratioP2;P2;SDS_P1;SDS_P2;PMS_P1;PMS_P2;Temp;Humidity;BMP_temperature;BMP_pressure;BME280_temperature;BME280_humidity;BME280_pressure;Samples;Min_cycle;Max_cycle;Signal;HPM_P1;HPM_P2
2023/12/14 00:02:25;;;;;;;2.47;2.17;;;;;;;6.05;100.00;97090.97;5072506;28;20238;-78
2023/12/14 00:04:51;;;;;;;2.87;2.13;;;;;;;6.06;100.00;97087.44;5072091;28;20229;-78
2023/12/14 00:07:19;;;;;;;3.47;2.30;;;;;;;6.10;100.00;97099.38;5075866;28;20203;-78
2023/12/14 00:09:45;;;;;;;2.67;2.00;;;;;;;6.17;100.00;97102.44;5074628;28;20232;-79
2023/12/14 00:12:12;;;;;;;4.03;2.50;;;;;;;6.16;100.00;97098.97;5079061;28;20246;-79
2023/12/14 00:14:38;;;;;;;3.13;2.30;;;;;;;6.15;100.00;97104.31;5077325;28;20252;-81
2023/12/14 00:17:05;;;;;;;3.50;2.37;;;;;;;6.18;100.00;97104.94;5075725;28;20211;-78
2023/12/14 00:19:31;;;;;;;2.77;2.13;;;;;;;6.13;100.00;97111.44;5073091;28;20586;-78
2023/12/14 00:21:58;;;;;;;2.60;2.27;;;;;;;6.14;100.00;97108.72;5072126;28;20246;-78
2023/12/14 00:24:26;;;;;;;3.13;2.33;;;;;;;6.10;100.00;97122.97;5071494;28;20581;-78
2023/12/14 00:26:52;;;;;;;3.23;2.50;;;;;;;6.12;100.00;97131.59;5072161;28;20211;-78
2023/12/14 00:29:19;;;;;;;2.93;2.23;;;;;;;6.10;100.00;97120.38;5072091;28;20207;-78
2023/12/14 00:31:45;;;;;;;4.13;2.33;;;;;;;6.09;100.00;97123.06;5071072;28;20230;-78
2023/12/14 00:34:11;;;;;;;3.40;2.30;;;;;;;6.11;100.00;97121.22;5072216;28;20234;-78
2023/12/14 00:36:38;;;;;;;2.90;2.40;;;;;;;6.08;100.00;97121.41;5071312;28;20207;-78
2023/12/14 00:39:05;;;;;;;3.30;2.73;;;;;;;6.09;100.00;97129.19;5072205;28;20230;-78
2023/12/14 00:41:33;;;;;;;2.97;2.40;;;;;;;6.10;100.00;97128.22;5071923;28;20233;-78
2023/12/14 00:43:59;;;;;;;2.83;2.50;;;;;;;6.09;100.00;97133.56;5071975;28;20213;-79
2023/12/14 00:46:26;;;;;;;4.33;2.63;;;;;;;6.06;100.00;97134.66;5071948;28;20206;-78
2023/12/14 00:48:52;;;;;;;3.33;2.83;;;;;;;6.05;100.00;97147.84;5071679;28;20206;-78
2023/12/14 00:51:19;;;;;;;4.00;2.80;;;;;;;6.03;100.00;97140.06;5071891;28;20234;-78
2023/12/14 00:53:45;;;;;;;3.73;2.47;;;;;;;6.01;100.00;97155.09;5072049;28;20258;-78
2023/12/14 00:56:12;;;;;;;4.23;2.40;;;;;;;6.08;100.00;97155.50;5071037;28;20207;-78
2023/12/14 00:58:39;;;;;;;4.37;2.57;;;;;;;6.11;100.00;97161.38;5071764;28;20215;-78
2023/12/14 01:01:06;;;;;;;2.73;2.40;;;;;;;6.13;100.00;97159.53;5071792;28;20238;-78
2023/12/14 01:03:32;;;;;;;3.40;2.60;;;;;;;6.15;100.00;97160.25;5071801;28;20597;-79
2023/12/14 01:05:59;;;;;;;3.33;2.80;;;;;;;6.14;100.00;97162.97;5071404;28;20237;-78
2023/12/14 01:08:25;;;;;;;3.83;2.30;;;;;;;6.10;100.00;97172.81;5072071;28;20209;-79
2023/12/14 01:10:52;;;;;;;2.90;2.30;;;;;;;6.11;100.00;97171.88;5071940;28;20209;-79
2023/12/14 01:13:18;;;;;;;5.30;2.53;;;;;;;6.10;100.00;97172.81;5071602;28;20207;-78
2023/12/14 01:15:46;;;;;;;3.77;2.60;;;;;;;6.12;100.00;97180.59;5071508;28;20218;-78
2023/12/14 01:18:13;;;;;;;3.47;2.50;;;;;;;6.18;100.00;97185.44;5071405;28;20206;-78
2023/12/14 01:20:39;;;;;;;3.47;2.67;;;;;;;6.16;100.00;97188.16;5071421;28;20210;-78
2023/12/14 01:23:09;;;;;;;3.73;2.50;;;;;;;6.13;100.00;97198.88;5071637;28;20234;-78
2023/12/14 01:25:35;;;;;;;3.00;2.43;;;;;;;6.15;100.00;97201.38;5071419;28;20569;-78
2023/12/14 01:28:02;;;;;;;4.30;2.47;;;;;;;6.20;100.00;97196.66;5071732;28;20212;-78
2023/12/14 01:30:28;;;;;;;3.00;2.33;;;;;;;6.17;100.00;97200.31;5071435;28;20221;-79
2023/12/14 01:32:56;;;;;;;4.13;2.67;;;;;;;6.15;100.00;97207.47;5071247;28;20319;-79
2023/12/14 01:35:23;;;;;;;2.60;2.40;;;;;;;6.14;100.00;97215.44;5071151;28;20233;-78
2023/12/14 01:37:50;;;;;;;3.67;2.70;;;;;;;6.14;100.00;97223.28;5071147;28;20218;-78
2023/12/14 01:40:20;;;;;;;2.70;2.13;;;;;;;6.11;100.00;97218.28;5071447;28;20211;-78
2023/12/14 01:42:47;;;;;;;7.33;2.50;;;;;;;6.13;100.00;97225.09;5071482;28;20273;-78
2023/12/14 01:45:15;;;;;;;3.27;2.57;;;;;;;6.14;100.00;97224.16;5074453;28;20207;-78
2023/12/14 01:47:42;;;;;;;4.60;2.83;;;;;;;6.14;100.00;97236.41;5074761;28;20291;-79
2023/12/14 01:50:10;;;;;;;3.10;2.70;;;;;;;6.09;100.00;97241.97;5074505;28;20217;-77
2023/12/14 01:52:36;;;;;;;3.37;2.87;;;;;;;6.05;100.00;97237.03;5074724;28;20226;-77
2023/12/14 01:55:03;;;;;;;3.43;2.80;;;;;;;6.02;100.00;97232.81;5073771;28;20227;-77
2023/12/14 01:57:30;;;;;;;2.97;2.37;;;;;;;6.02;100.00;97230.19;5074278;28;20204;-79
2023/12/14 01:59:56;;;;;;;3.23;2.63;;;;;;;6.06;100.00;97244.81;5073654;28;20210;-77
2023/12/14 02:02:23;;;;;;;4.00;2.87;;;;;;;6.09;100.00;97249.84;5074226;28;20239;-78
2023/12/14 02:04:49;;;;;;;3.13;2.50;;;;;;;6.12;100.00;97254.88;5074062;28;20209;-78
2023/12/14 02:07:17;;;;;;;3.43;2.80;;;;;;;6.16;100.00;97258.97;5074215;28;20674;-78
2023/12/14 02:09:44;;;;;;;4.10;2.90;;;;;;;6.18;100.00;97264.97;5074174;28;20728;-78
2023/12/14 02:12:10;;;;;;;4.23;2.80;;;;;;;6.17;100.00;97262.47;5074359;28;20238;-78
2023/12/14 02:14:37;;;;;;;7.67;3.20;;;;;;;6.16;100.00;97266.84;5073856;28;20230;-78
2023/12/14 02:17:04;;;;;;;5.70;2.90;;;;;;;6.17;100.00;97268.53;5074963;28;20210;-78
2023/12/14 02:19:30;;;;;;;3.70;2.77;;;;;;;6.23;100.00;97267.31;5075586;28;20315;-78
2023/12/14 02:21:57;;;;;;;3.93;2.70;;;;;;;6.23;100.00;97267.31;5075727;28;20231;-78
2023/12/14 02:24:25;;;;;;;3.53;2.87;;;;;;;6.24;100.00;97275.06;5074106;28;20206;-78
2023/12/14 02:26:51;;;;;;;5.57;2.90;;;;;;;6.19;100.00;97274.53;5075279;28;20217;-78
2023/12/14 02:29:18;;;;;;;4.97;2.90;;;;;;;6.21;100.00;97277.88;5074503;28;20205;-78
2023/12/14 02:31:44;;;;;;;3.23;2.67;;;;;;;6.20;100.00;97284.09;5075005;28;20230;-78
2023/12/14 02:34:10;;;;;;;3.30;2.53;;;;;;;6.18;100.00;97280.69;5075156;28;20230;-78
2023/12/14 02:36:37;;;;;;;3.37;2.40;;;;;;;6.19;100.00;97286.81;5074758;28;20611;-78
2023/12/14 02:39:04;;;;;;;3.67;2.70;;;;;;;6.21;100.00;97285.75;5074989;28;20211;-78
2023/12/14 02:41:31;;;;;;;3.07;2.30;;;;;;;6.19;100.00;97287.66;5074156;28;20598;-78
2023/12/14 02:43:58;;;;;;;4.30;2.67;;;;;;;6.19;100.00;97294.66;5073481;28;20220;-78
2023/12/14 02:46:24;;;;;;;3.20;2.47;;;;;;;6.14;100.00;97300.22;5073448;28;20207;-78
2023/12/14 02:48:51;;;;;;;4.70;2.30;;;;;;;6.16;100.00;97300.97;5074094;28;20216;-78
2023/12/14 02:51:17;;;;;;;4.40;2.70;;;;;;;6.14;100.00;97302.84;5073818;28;20230;-78
2023/12/14 02:53:44;;;;;;;3.97;2.53;;;;;;;6.14;100.00;97299.38;5073570;28;20215;-78
2023/12/14 02:56:10;;;;;;;3.73;2.20;;;;;;;6.15;100.00;97296.66;5072178;28;20228;-78
2023/12/14 02:58:38;;;;;;;3.20;2.50;;;;;;;6.13;100.00;97301.16;5074045;28;20248;-78
2023/12/14 03:01:05;;;;;;;2.67;1.93;;;;;;;6.10;100.00;97303.16;5073767;28;20597;-78
2023/12/14 03:03:31;;;;;;;2.43;1.90;;;;;;;6.09;100.00;97301.44;5073488;28;20254;-78
2023/12/14 03:05:58;;;;;;;4.80;2.40;;;;;;;6.09;100.00;97304.91;5073327;28;20210;-78
2023/12/14 03:08:24;;;;;;;2.00;1.80;;;;;;;6.07;100.00;97312.06;5073702;28;20296;-78
2023/12/14 03:10:51;;;;;;;2.53;2.20;;;;;;;6.06;100.00;97312.16;5073486;28;20210;-78
2023/12/14 03:13:17;;;;;;;3.17;2.17;;;;;;;6.09;100.00;97317.19;5073878;28;20210;-78
2023/12/14 03:15:46;;;;;;;2.50;1.97;;;;;;;6.10;100.00;97324.13;5072989;28;20230;-78
2023/12/14 03:18:13;;;;;;;3.70;2.33;;;;;;;6.10;100.00;97338.06;5073661;28;20234;-78
2023/12/14 03:20:39;;;;;;;3.03;2.10;;;;;;;6.12;100.00;97328.31;5073439;28;20233;-78
2023/12/14 03:23:06;;;;;;;3.87;2.20;;;;;;;6.13;100.00;97337.91;5073199;28;20238;-78
2023/12/14 03:25:32;;;;;;;2.93;2.03;;;;;;;6.13;100.00;97345.75;5072263;28;20705;-78
2023/12/14 03:27:59;;;;;;;3.47;2.30;;;;;;;6.14;100.00;97347.44;5073129;28;20212;-79
2023/12/14 03:30:26;;;;;;;2.73;2.20;;;;;;;6.18;100.00;97354.16;5072763;28;20211;-79
2023/12/14 03:32:54;;;;;;;3.37;2.47;;;;;;;6.16;100.00;97358.66;5072236;28;20774;-77
2023/12/14 03:35:21;;;;;;;3.40;2.00;;;;;;;6.12;100.00;97358.97;5072639;28;20612;-78
2023/12/14 03:37:47;;;;;;;3.10;2.30;;;;;;;6.13;100.00;97364.13;5072206;28;20214;-77
2023/12/14 03:40:14;;;;;;;2.00;1.80;;;;;;;6.10;100.00;97361.69;5072207;28;20218;-78
2023/12/14 03:42:40;;;;;;;2.27;1.80;;;;;;;6.09;100.00;97374.88;5072434;28;20230;-79
2023/12/14 03:45:07;;;;;;;3.60;1.90;;;;;;;6.10;100.00;97377.41;5071561;28;20210;-77
2023/12/14 03:47:34;;;;;;;3.67;2.10;;;;;;;6.11;100.00;97376.47;5072272;28;20560;-77
2023/12/14 03:50:02;;;;;;;4.03;2.20;;;;;;;6.16;100.00;97381.47;5072605;28;20216;-78
2023/12/14 03:52:31;;;;;;;2.23;1.90;;;;;;;6.12;100.00;97385.19;5072181;28;20328;-78
2023/12/14 03:54:57;;;;;;;3.60;2.03;;;;;;;6.11;100.00;97394.00;5072227;28;20234;-78
2023/12/14 03:57:24;;;;;;;3.20;1.90;;;;;;;6.12;100.00;97395.69;5073210;28;20206;-78
2023/12/14 03:59:50;;;;;;;2.40;1.90;;;;;;;6.09;100.00;97406.38;5072926;28;20211;-78
2023/12/14 04:02:16;;;;;;;2.20;1.93;;;;;;;6.10;100.00;97406.28;5072141;28;20253;-80
2023/12/14 04:04:43;;;;;;;2.77;2.10;;;;;;;6.10;100.00;97403.66;5071424;28;20215;-80
2023/12/14 04:07:11;;;;;;;2.10;1.77;;;;;;;6.11;100.00;97410.56;5071746;28;20207;-80
2023/12/14 04:09:37;;;;;;;2.17;1.93;;;;;;;6.10;100.00;97419.38;5071806;28;20213;-80
2023/12/14 04:12:05;;;;;;;2.17;1.97;;;;;;;6.13;100.00;97418.34;5071908;28;20253;-80
2023/12/14 04:14:31;;;;;;;2.47;2.10;;;;;;;6.12;100.00;97424.56;5071913;28;20219;-78
2023/12/14 04:16:57;;;;;;;2.70;2.20;;;;;;;6.09;100.00;97438.69;5073148;28;20210;-78
2023/12/14 04:19:24;;;;;;;2.20;1.67;;;;;;;6.08;100.00;97437.00;5073440;28;20251;-78
2023/12/14 04:21:50;;;;;;;3.47;2.20;;;;;;;6.10;100.00;97440.38;5072659;28;20238;-80
2023/12/14 04:24:18;;;;;;;3.20;1.90;;;;;;;6.08;100.00;97447.50;5071990;28;20211;-80
2023/12/14 04:26:45;;;;;;;3.67;2.17;;;;;;;6.12;100.00;97443.75;5071740;28;20214;-78
2023/12/14 04:29:11;;;;;;;6.63;2.17;;;;;;;6.12;100.00;97448.97;5073099;28;20218;-78
2023/12/14 04:31:38;;;;;;;3.57;2.20;;;;;;;6.11;100.00;97456.97;5072918;28;20234;-78
2023/12/14 04:34:04;;;;;;;3.70;2.07;;;;;;;6.11;100.00;97460.41;5072950;28;20207;-78
2023/12/14 04:36:30;;;;;;;2.70;2.20;;;;;;;6.10;100.00;97458.75;5078869;28;20231;-78
2023/12/14 04:38:57;;;;;;;2.63;1.90;;;;;;;6.15;100.00;97459.31;5089806;28;20197;-77
2023/12/14 04:41:25;;;;;;;3.03;2.07;;;;;;;6.14;100.00;97464.63;5089480;28;20223;-79
2023/12/14 04:43:51;;;;;;;3.07;2.37;;;;;;;6.14;100.00;97477.75;5089512;28;20227;-77
2023/12/14 04:46:18;;;;;;;3.30;2.10;;;;;;;6.16;100.00;97474.09;5081607;28;20203;-77
2023/12/14 04:48:44;;;;;;;4.27;2.60;;;;;;;6.17;100.00;97472.34;5071119;28;20679;-77
2023/12/14 04:51:13;;;;;;;3.40;2.30;;;;;;;6.16;100.00;97476.72;5071590;28;20236;-77
2023/12/14 04:53:39;;;;;;;3.77;2.40;;;;;;;6.14;100.00;97478.59;5071426;28;20234;-77
2023/12/14 04:56:10;;;;;;;3.20;2.70;;;;;;;6.14;100.00;97475.97;5071325;28;20237;-77
2023/12/14 04:58:38;;;;;;;3.27;2.63;;;;;;;6.15;100.00;97482.91;5071774;28;20207;-77
2023/12/14 05:01:04;;;;;;;2.77;2.27;;;;;;;6.21;100.00;97484.31;5071179;28;20230;-77
2023/12/14 05:03:31;;;;;;;3.70;2.27;;;;;;;6.21;100.00;97490.41;5071020;28;20217;-77
2023/12/14 05:05:57;;;;;;;3.87;2.00;;;;;;;6.23;100.00;97496.38;5071188;28;20200;-77
2023/12/14 05:08:24;;;;;;;4.03;2.47;;;;;;;6.24;100.00;97499.88;5071689;28;20202;-77
2023/12/14 05:10:50;;;;;;;3.33;2.40;;;;;;;6.24;100.00;97505.94;5071003;28;20222;-77
2023/12/14 05:13:17;;;;;;;4.60;2.47;;;;;;;6.25;100.00;97505.03;5071041;28;20233;-77
2023/12/14 05:15:45;;;;;;;2.50;2.03;;;;;;;6.24;100.00;97513.00;5070493;28;20720;-77
2023/12/14 05:18:11;;;;;;;3.17;2.60;;;;;;;6.25;100.00;97518.16;5072669;28;20215;-77
2023/12/14 05:20:38;;;;;;;4.57;2.13;;;;;;;6.29;100.00;97514.38;5074991;28;20691;-77
2023/12/14 05:23:04;;;;;;;2.93;2.37;;;;;;;6.31;100.00;97522.16;5074986;28;20252;-79
2023/12/14 05:25:31;;;;;;;2.40;2.20;;;;;;;6.36;100.00;97526.16;5074341;28;20199;-79
2023/12/14 05:27:57;;;;;;;4.47;2.27;;;;;;;6.39;100.00;97531.25;5074616;28;20218;-77
2023/12/14 05:30:24;;;;;;;3.67;2.47;;;;;;;6.40;100.00;97543.44;5074379;28;20206;-78
2023/12/14 05:32:51;;;;;;;3.50;2.70;;;;;;;6.43;100.00;97538.00;5074809;28;20238;-77
2023/12/14 05:35:18;;;;;;;2.97;2.23;;;;;;;6.40;100.00;97546.06;5074024;28;20245;-77
2023/12/14 05:37:44;;;;;;;3.13;2.50;;;;;;;6.39;100.00;97552.25;5074705;28;20546;-77
2023/12/14 05:40:12;;;;;;;3.43;2.57;;;;;;;6.39;100.00;97560.13;5074694;28;20210;-77
2023/12/14 05:42:38;;;;;;;4.83;2.97;;;;;;;6.35;100.00;97566.47;5074259;28;20232;-79
2023/12/14 05:45:06;;;;;;;6.23;3.10;;;;;;;6.43;100.00;97576.53;5073723;28;20203;-79
2023/12/14 05:47:34;;;;;;;4.07;2.83;;;;;;;6.43;100.00;97579.16;5074633;28;20316;-79
2023/12/14 05:50:02;;;;;;;4.67;2.93;;;;;;;6.40;100.00;97584.59;5074311;28;20212;-77
2023/12/14 05:52:28;;;;;;;4.87;2.70;;;;;;;6.40;100.00;97585.41;5074233;28;20231;-79
2023/12/14 05:54:56;;;;;;;5.03;2.93;;;;;;;6.39;100.00;97583.75;5073492;28;20669;-77
2023/12/14 05:57:22;;;;;;;4.20;3.20;;;;;;;6.40;100.00;97587.22;5074404;28;20216;-78
2023/12/14 05:59:51;;;;;;;4.00;3.00;;;;;;;6.41;100.00;97587.09;5074092;28;20207;-77
2023/12/14 06:02:17;;;;;;;4.30;3.20;;;;;;;6.34;100.00;97591.03;5074880;28;20235;-78
2023/12/14 06:04:44;;;;;;;4.90;3.13;;;;;;;6.37;100.00;97585.63;5073976;28;20203;-78
2023/12/14 06:07:19;;;;;;;6.13;3.40;;;;;;;6.36;100.00;97591.78;5075026;28;20591;-77
2023/12/14 06:09:45;;;;;;;5.57;3.77;;;;;;;6.43;100.00;97605.38;5074948;28;20678;-77
2023/12/14 06:12:13;;;;;;;5.53;3.83;;;;;;;6.41;100.00;97605.47;5074523;28;20253;-77
2023/12/14 06:14:39;;;;;;;3.97;3.30;;;;;;;6.41;100.00;97607.28;5077788;28;20207;-80
2023/12/14 06:17:06;;;;;;;5.97;3.83;;;;;;;6.39;100.00;97612.59;5080316;28;20237;-77
2023/12/14 06:19:33;;;;;;;5.70;3.80;;;;;;;6.43;100.00;97618.50;5079475;28;20221;-79
2023/12/14 06:21:59;;;;;;;5.87;3.63;;;;;;;6.46;100.00;97613.06;5075371;28;20280;-80
2023/12/14 06:24:27;;;;;;;6.03;3.90;;;;;;;6.46;100.00;97621.78;5073201;28;20206;-78
2023/12/14 06:26:53;;;;;;;7.03;4.43;;;;;;;6.41;100.00;97621.22;5074580;28;20222;-79
2023/12/14 06:29:20;;;;;;;6.70;3.90;;;;;;;6.41;100.00;97631.72;5073789;28;20211;-79
2023/12/14 06:31:46;;;;;;;6.10;4.30;;;;;;;6.39;100.00;97635.38;5074556;28;20236;-79
2023/12/14 06:34:13;;;;;;;5.63;4.07;;;;;;;6.38;100.00;97639.78;5074627;28;20744;-79
2023/12/14 06:36:43;;;;;;;5.90;4.07;;;;;;;6.44;100.00;97649.94;5074219;28;20235;-79
2023/12/14 06:39:10;;;;;;;6.17;4.10;;;;;;;6.43;100.00;97648.25;5074758;28;20207;-79
2023/12/14 06:41:38;;;;;;;6.70;4.50;;;;;;;6.45;100.00;97662.09;5074668;28;20234;-79
2023/12/14 06:44:05;;;;;;;5.40;3.93;;;;;;;6.46;100.00;97663.78;5074358;28;20212;-79
2023/12/14 06:46:32;;;;;;;5.30;3.80;;;;;;;6.52;100.00;97668.66;5074354;28;20214;-79
2023/12/14 06:48:58;;;;;;;7.47;4.60;;;;;;;6.56;100.00;97669.31;5074900;28;20211;-79
2023/12/14 06:51:25;;;;;;;6.57;4.27;;;;;;;6.57;100.00;97671.00;5074638;28;20231;-79
2023/12/14 06:53:52;;;;;;;7.00;4.43;;;;;;;6.51;100.00;97674.88;5073640;28;20215;-79
2023/12/14 06:56:18;;;;;;;7.70;4.80;;;;;;;6.57;100.00;97682.38;5072934;28;20262;-79
2023/12/14 06:58:49;;;;;;;7.07;4.77;;;;;;;6.58;100.00;97686.69;5073244;28;20210;-79
2023/12/14 07:01:16;;;;;;;8.23;4.77;;;;;;;6.61;100.00;97686.50;5072526;28;20743;-80
2023/12/14 07:03:44;;;;;;;7.97;4.80;;;;;;;6.61;100.00;97701.41;5073230;28;20219;-79
2023/12/14 07:06:13;;;;;;;9.97;5.00;;;;;;;6.59;100.00;97709.38;5071935;28;20199;-79
2023/12/14 07:08:40;;;;;;;9.37;5.20;;;;;;;6.65;100.00;97716.88;5073720;28;20215;-78
2023/12/14 07:11:06;;;;;;;8.63;5.30;;;;;;;6.69;100.00;97717.53;5072855;28;20259;-80
2023/12/14 07:13:33;;;;;;;10.57;6.20;;;;;;;6.74;100.00;97721.59;5073941;28;20658;-78
2023/12/14 07:16:01;;;;;;;10.63;5.70;;;;;;;6.73;100.00;97730.38;5072769;28;20234;-78
2023/12/14 07:18:27;;;;;;;11.17;6.57;;;;;;;6.76;100.00;97735.47;5074054;28;20325;-80
2023/12/14 07:20:54;;;;;;;11.23;6.40;;;;;;;6.78;100.00;97748.50;5074275;28;20210;-78
2023/12/14 07:23:20;;;;;;;11.67;6.53;;;;;;;6.78;100.00;97751.97;5074499;28;20227;-81
2023/12/14 07:25:46;;;;;;;10.97;6.30;;;;;;;6.78;100.00;97756.38;5074204;28;20203;-81
2023/12/14 07:28:13;;;;;;;10.47;5.77;;;;;;;6.77;100.00;97752.91;5074673;28;20207;-81
2023/12/14 07:30:39;;;;;;;12.33;6.60;;;;;;;6.81;100.00;97762.31;5074544;28;20203;-82
2023/12/14 07:33:07;;;;;;;12.70;6.80;;;;;;;6.78;100.00;97765.09;5073888;28;20235;-81
2023/12/14 07:35:34;;;;;;;9.93;6.03;;;;;;;6.77;100.00;97768.66;5071927;28;20211;-80
2023/12/14 07:38:00;;;;;;;10.30;6.40;;;;;;;6.80;100.00;97767.63;5072507;28;20215;-78
2023/12/14 07:40:27;;;;;;;11.47;7.13;;;;;;;6.77;100.00;97773.91;5073043;28;20216;-78
2023/12/14 07:42:55;;;;;;;11.87;6.83;;;;;;;6.82;100.00;97771.88;5072113;28;20234;-78
2023/12/14 07:45:22;;;;;;;11.90;6.53;;;;;;;6.82;100.00;97782.38;5072455;28;20647;-78
2023/12/14 07:47:48;;;;;;;11.17;6.60;;;;;;;6.83;100.00;97788.47;5072717;28;20214;-78
2023/12/14 07:50:16;;;;;;;11.13;6.33;;;;;;;6.86;100.00;97789.16;5072918;28;20210;-78
2023/12/14 07:52:43;;;;;;;13.07;8.07;;;;;;;6.93;100.00;97798.34;5071024;28;20433;-78
2023/12/14 07:55:09;;;;;;;10.07;6.43;;;;;;;6.94;100.00;97802.66;5070587;28;20590;-78
2023/12/14 07:57:36;;;;;;;10.10;6.13;;;;;;;6.95;100.00;97806.97;5072149;28;20582;-79
2023/12/14 08:00:03;;;;;;;9.30;5.83;;;;;;;7.01;100.00;97803.97;5072478;28;20211;-79
2023/12/14 08:02:30;;;;;;;9.40;5.80;;;;;;;7.01;100.00;97814.47;5070743;28;20618;-78
2023/12/14 08:04:57;;;;;;;7.40;4.83;;;;;;;7.04;100.00;97809.06;5071800;28;20208;-78
2023/12/14 08:07:28;;;;;;;9.67;5.70;;;;;;;7.06;100.00;97816.81;5072445;28;20211;-78
2023/12/14 08:09:55;;;;;;;9.68;5.80;;;;;;;7.11;100.00;97817.41;5066699;28;20924;-77
2023/12/14 08:12:22;;;;;;;8.53;5.73;;;;;;;7.09;100.00;97822.72;5076394;28;20230;-83
2023/12/14 08:14:48;;;;;;;10.30;5.97;;;;;;;7.22;100.00;97825.47;5075373;28;20207;-76
2023/12/14 08:17:15;;;;;;;9.43;6.07;;;;;;;7.22;100.00;97828.97;5071554;28;20314;-76
2023/12/14 08:19:42;;;;;;;11.23;6.40;;;;;;;7.25;100.00;97839.28;5072594;28;20219;-78
2023/12/14 08:22:12;;;;;;;11.10;6.63;;;;;;;7.25;100.00;97844.53;5072683;28;20596;-78
2023/12/14 08:24:40;;;;;;;12.30;8.07;;;;;;;7.22;100.00;97850.00;5072742;28;20213;-79
2023/12/14 08:27:07;;;;;;;15.77;9.10;;;;;;;7.22;100.00;97860.50;5074242;28;20208;-81
2023/12/14 08:29:33;;;;;;;15.60;9.77;;;;;;;7.21;100.00;97853.53;5077085;28;20212;-80
2023/12/14 08:32:00;;;;;;;15.30;8.63;;;;;;;7.23;100.00;97867.44;5072906;28;20228;-79
2023/12/14 08:34:28;;;;;;;13.97;7.70;;;;;;;7.21;100.00;97871.09;5072380;28;20294;-78
2023/12/14 08:36:54;;;;;;;12.93;7.60;;;;;;;7.19;100.00;97868.56;5073739;28;20227;-78
2023/12/14 08:39:21;;;;;;;12.40;7.73;;;;;;;7.24;100.00;97875.22;5071817;28;20207;-79
2023/12/14 08:41:49;;;;;;;13.50;7.93;;;;;;;7.33;100.00;97885.19;5072863;28;20348;-79
2023/12/14 08:44:16;;;;;;;13.17;7.60;;;;;;;7.40;100.00;97883.03;5073076;28;20204;-79
2023/12/14 08:46:43;;;;;;;16.20;9.43;;;;;;;7.50;100.00;97897.31;5072342;28;20207;-79
2023/12/14 08:49:09;;;;;;;14.80;8.27;;;;;;;7.60;100.00;97898.47;5072660;28;20224;-79
2023/12/14 08:51:36;;;;;;;14.33;8.43;;;;;;;7.71;100.00;97896.84;5072625;28;20223;-79
2023/12/14 08:54:02;;;;;;;10.93;7.37;;;;;;;7.80;100.00;97911.22;5075106;28;20214;-80
2023/12/14 08:56:29;;;;;;;17.13;9.53;;;;;;;7.86;100.00;97916.97;5076517;28;20326;-80
2023/12/14 08:58:57;;;;;;;15.00;8.70;;;;;;;7.83;100.00;97922.41;5077060;28;20215;-80
2023/12/14 09:01:24;;;;;;;15.40;8.70;;;;;;;7.87;100.00;97933.59;5078530;28;20637;-80
2023/12/14 09:03:50;;;;;;;15.27;8.53;;;;;;;7.89;100.00;97944.88;5078292;28;20214;-79
2023/12/14 09:06:18;;;;;;;13.27;8.70;;;;;;;7.87;100.00;97936.22;5076227;28;20246;-79
2023/12/14 09:08:44;;;;;;;13.83;8.47;;;;;;;7.87;100.00;97936.22;5076138;28;20669;-79
2023/12/14 09:11:11;;;;;;;16.10;8.00;;;;;;;7.88;100.00;97941.41;5077612;28;20223;-80
2023/12/14 09:13:37;;;;;;;12.97;7.90;;;;;;;7.92;100.00;97957.84;5078216;28;20215;-81
2023/12/14 09:16:06;;;;;;;14.37;8.50;;;;;;;7.98;100.00;97952.19;5077828;28;20207;-81
2023/12/14 09:18:33;;;;;;;13.33;8.23;;;;;;;8.06;100.00;97965.72;5080978;28;20207;-82
2023/12/14 09:21:00;;;;;;;15.30;8.87;;;;;;;8.01;100.00;97967.78;5081774;28;20203;-82
2023/12/14 09:23:26;;;;;;;14.57;8.80;;;;;;;8.02;100.00;97974.75;5080895;28;20212;-82
2023/12/14 09:25:53;;;;;;;16.00;8.57;;;;;;;8.00;100.00;97979.25;5081338;28;20208;-82
2023/12/14 09:28:19;;;;;;;14.43;9.00;;;;;;;8.00;100.00;97981.88;5081877;28;20208;-82
2023/12/14 09:30:46;;;;;;;14.30;8.73;;;;;;;8.00;100.00;97987.16;5073905;28;20205;-82
2023/12/14 09:33:14;;;;;;;15.17;8.77;;;;;;;8.01;100.00;98002.00;5054857;28;20216;-82
2023/12/14 09:35:41;;;;;;;15.30;9.27;;;;;;;7.98;100.00;98004.81;5070262;28;20214;-80
2023/12/14 09:38:08;;;;;;;15.30;8.77;;;;;;;7.98;100.00;98004.81;5072875;28;20326;-78
2023/12/14 09:40:35;;;;;;;15.23;9.60;;;;;;;7.98;100.00;98003.06;5073183;28;20686;-78
2023/12/14 09:43:03;;;;;;;15.37;8.90;;;;;;;8.02;100.00;98001.09;5075840;28;20244;-79
2023/12/14 09:45:30;;;;;;;17.30;9.00;;;;;;;8.15;100.00;98002.00;5075319;28;20662;-79
2023/12/14 09:47:57;;;;;;;14.93;8.97;;;;;;;8.22;100.00;97998.09;5076003;28;20567;-79
2023/12/14 09:50:26;;;;;;;15.20;9.40;;;;;;;8.32;100.00;98007.13;5076151;28;20211;-79
2023/12/14 09:52:52;;;;;;;14.50;8.50;;;;;;;8.42;100.00;98010.84;5076072;28;20228;-79
2023/12/14 09:55:19;;;;;;;12.83;8.53;;;;;;;8.45;100.00;98010.69;5075770;28;20245;-79
2023/12/14 09:57:45;;;;;;;13.37;8.17;;;;;;;8.49;100.00;98007.75;5076055;28;20761;-79
2023/12/14 10:00:14;;;;;;;12.47;7.63;;;;;;;8.48;100.00;98007.84;5076382;28;20649;-80
2023/12/14 10:02:42;;;;;;;15.73;9.23;;;;;;;8.51;100.00;98021.66;5076469;28;20402;-79
2023/12/14 10:05:11;;;;;;;14.23;8.30;;;;;;;8.49;100.00;98022.69;5075631;28;20287;-79
2023/12/14 10:07:43;;;;;;;15.33;9.27;;;;;;;8.52;100.00;98028.63;5076464;28;20296;-79
2023/12/14 10:10:14;;;;;;;13.97;8.27;;;;;;;8.59;100.00;98037.00;5076456;28;20215;-80
2023/12/14 10:12:52;;;;;;;13.70;7.67;;;;;;;8.59;100.00;98040.50;5076075;28;20251;-80
2023/12/14 10:15:19;;;;;;;12.77;8.23;;;;;;;8.64;100.00;98048.91;5075901;28;20214;-79
2023/12/14 10:17:52;;;;;;;13.80;8.30;;;;;;;8.66;100.00;98051.47;5075996;28;20236;-80
2023/12/14 10:20:21;;;;;;;11.23;7.43;;;;;;;8.57;100.00;98052.06;5075915;28;20230;-79
2023/12/14 10:22:50;;;;;;;11.50;7.57;;;;;;;8.60;100.00;98057.97;5073996;28;20235;-80
2023/12/14 10:25:18;;;;;;;10.73;6.53;;;;;;;8.58;100.00;98061.66;5073116;28;20215;-79
2023/12/14 10:27:47;;;;;;;14.43;7.90;;;;;;;8.53;100.00;98061.09;5074385;28;20204;-80
2023/12/14 10:30:15;;;;;;;11.23;6.33;;;;;;;8.54;100.00;98068.03;5074454;28;20211;-80
2023/12/14 10:32:41;;;;;;;12.67;7.03;;;;;;;8.44;100.00;98072.19;5072939;28;20933;-80
2023/12/14 10:35:08;;;;;;;9.83;6.43;;;;;;;8.44;100.00;98072.19;5072788;28;20631;-80
2023/12/14 10:37:38;;;;;;;10.17;6.97;;;;;;;8.45;100.00;98063.34;5073829;28;20228;-80
2023/12/14 10:40:10;;;;;;;9.53;6.10;;;;;;;8.49;100.00;98064.84;5074569;28;20765;-79
2023/12/14 10:42:37;;;;;;;9.30;6.73;;;;;;;8.53;100.00;98074.25;5073599;28;20728;-80
2023/12/14 10:45:05;;;;;;;9.80;5.83;;;;;;;8.57;100.00;98079.22;5072516;28;20215;-80
2023/12/14 10:47:31;;;;;;;10.63;6.10;;;;;;;8.50;100.00;98085.00;5072578;28;20212;-79
2023/12/14 10:50:01;;;;;;;8.70;5.70;;;;;;;8.57;100.00;98081.88;5072064;28;20298;-80
2023/12/14 10:52:29;;;;;;;9.80;6.17;;;;;;;8.58;100.00;98088.00;5072385;28;20267;-80
2023/12/14 10:55:01;;;;;;;7.00;5.23;;;;;;;8.50;100.00;98085.00;5060223;28;20270;-79
2023/12/14 10:57:29;;;;;;;11.67;6.57;;;;;;;8.52;100.00;98088.38;5054525;28;20706;-80
2023/12/14 10:59:59;;;;;;;9.33;6.03;;;;;;;8.54;100.00;98095.25;5054675;28;20208;-80
2023/12/14 11:02:26;;;;;;;10.03;5.73;;;;;;;8.59;100.00;98090.53;5055036;28;20601;-79
2023/12/14 11:04:58;;;;;;;7.83;5.70;;;;;;;8.54;100.00;98104.91;5055476;28;20208;-81
2023/12/14 11:07:44;;;;;;;9.00;5.43;;;;;;;8.55;100.00;98096.06;5055161;28;20248;-80
2023/12/14 11:10:11;;;;;;;15.50;5.30;;;;;;;8.50;100.00;98095.53;5055067;28;20213;-80
2023/12/14 11:12:50;;;;;;;9.73;6.27;;;;;;;8.57;100.00;98099.47;5055175;28;20231;-80
2023/12/14 11:15:18;;;;;;;20.40;10.53;;;;;;;8.58;100.00;98106.44;5053997;28;20220;-80
2023/12/14 11:18:04;;;;;;;8.93;6.30;;;;;;;8.56;100.00;98103.06;5054080;28;20225;-80
2023/12/14 11:20:31;;;;;;;8.93;6.17;;;;;;;8.49;100.00;98091.19;5054124;28;20213;-80
2023/12/14 11:23:08;;;;;;;9.10;5.77;;;;;;;8.56;100.00;98103.06;5054450;28;20781;-80
2023/12/14 11:25:36;;;;;;;7.80;5.60;;;;;;;8.58;100.00;98106.44;5053434;28;20674;-80
2023/12/14 11:28:07;;;;;;;9.63;6.10;;;;;;;8.65;100.00;98111.22;5054002;28;20204;-81
2023/12/14 11:30:34;;;;;;;10.27;6.30;;;;;;;8.68;100.00;98102.25;5054392;28;20213;-81
2023/12/14 11:33:00;;;;;;;9.67;6.03;;;;;;;8.70;100.00;98119.69;5054113;28;20229;-80